Time;durP1;ratioP1;P1;durP2;ratioP2;P2;SDS_P1;SDS_P2;PMS_P1;PMS_P2;Temp;Humidity;BMP_temperature;BMP_pressure;BME280_temperature;BME280_humidity;BME280_pressure;Samples;Min_cycle;Max_cycle;Signal;HPM_P1;HPM_P2
2022/06/15 00:01:23;;;;;;;10.43;4.75;;;18.00;99.90;;;;;;6314007;22;20003;-87
2022/06/15 00:03:50;;;;;;;7.65;3.38;;;18.00;99.90;;;;;;6309824;22;20098;-86
2022/06/15 00:06:19;;;;;;;9.30;4.10;;;17.90;99.90;;;;;;6308806;22;19995;-87
2022/06/15 00:08:47;;;;;;;11.45;3.78;;;17.70;99.90;;;;;;6308304;22;20443;-87
2022/06/15 00:11:28;;;;;;;10.63;3.75;;;17.70;99.90;;;;;;6307241;22;20003;-88
2022/06/15 00:13:56;;;;;;;9.95;4.00;;;17.60;99.90;;;;;;6336774;22;20002;-88
2022/06/15 00:16:23;;;;;;;7.13;3.38;;;17.50;99.90;;;;;;6335287;22;20002;-89
2022/06/15 00:18:49;;;;;;;9.48;3.75;;;17.40;99.90;;;;;;6313941;22;20059;-88
2022/06/15 00:21:17;;;;;;;10.45;4.30;;;17.50;99.90;;;;;;6342525;22;19999;-88
2022/06/15 00:23:51;;;;;;;10.30;3.80;;;17.50;99.90;;;;;;6350971;22;20007;-89
2022/06/15 00:26:26;;;;;;;8.45;4.32;;;17.40;99.90;;;;;;6352310;22;20002;-89
2022/06/15 00:28:52;;;;;;;6.80;3.70;;;17.30;99.90;;;;;;6351668;22;20002;-88
2022/06/15 00:31:19;;;;;;;6.90;3.45;;;17.30;99.90;;;;;;6320364;22;20132;-88
2022/06/15 00:33:45;;;;;;;9.75;3.80;;;17.20;99.90;;;;;;6343199;22;20443;-89
2022/06/15 00:36:16;;;;;;;9.80;3.90;;;17.30;99.90;;;;;;6321477;22;20004;-88
2022/06/15 00:38:44;;;;;;;7.07;3.58;;;17.20;99.90;;;;;;6340142;22;20090;-88
2022/06/15 00:41:13;;;;;;;9.45;3.78;;;17.20;99.90;;;;;;6345523;22;19998;-88
2022/06/15 00:43:49;;;;;;;10.38;3.45;;;17.20;99.90;;;;;;6319357;22;20011;-88
2022/06/15 00:46:37;;;;;;;6.43;3.15;;;17.20;99.90;;;;;;6321580;22;20042;-89
2022/06/15 00:49:08;;;;;;;8.05;3.70;;;17.30;99.90;;;;;;6314205;22;20510;-93
2022/06/15 00:51:35;;;;;;;8.75;3.42;;;17.40;99.90;;;;;;6312330;22;20006;-88
2022/06/15 00:54:03;;;;;;;6.57;3.58;;;17.40;99.90;;;;;;6318978;22;20048;-88
2022/06/15 00:56:32;;;;;;;8.80;3.10;;;17.20;99.90;;;;;;6345249;22;20003;-88
2022/06/15 00:59:04;;;;;;;5.68;3.40;;;17.20;99.90;;;;;;6344692;22;20026;-88
2022/06/15 01:01:30;;;;;;;14.05;3.72;;;17.30;99.90;;;;;;6349578;22;20002;-88
2022/06/15 01:03:57;;;;;;;6.18;3.40;;;17.30;99.90;;;;;;6319502;22;20025;-88
2022/06/15 01:06:54;;;;;;;15.23;3.78;;;17.30;99.90;;;;;;6317774;22;20061;-93
2022/06/15 01:09:29;;;;;;;7.95;3.78;;;17.30;99.90;;;;;;6342552;22;19999;-90
2022/06/15 01:12:08;;;;;;;10.57;3.40;;;17.30;99.90;;;;;;6320519;22;19999;-88
2022/06/15 01:14:46;;;;;;;6.90;3.30;;;17.20;99.90;;;;;;6313149;22;20336;-89
2022/06/15 01:17:27;;;;;;;8.23;3.53;;;17.20;99.90;;;;;;6340929;22;19991;-88
2022/06/15 01:20:27;;;;;;;8.15;3.60;;;17.20;99.90;;;;;;6310445;22;20011;-88
2022/06/15 01:23:34;;;;;;;9.52;3.72;;;17.20;99.90;;;;;;6338499;22;20010;-89
2022/06/15 01:26:38;;;;;;;9.13;3.88;;;17.20;99.90;;;;;;6320167;22;20046;-88
2022/06/15 01:29:22;;;;;;;5.40;3.38;;;17.00;99.90;;;;;;6252046;22;19999;-87
2022/06/15 01:32:04;;;;;;;9.68;3.53;;;17.00;99.90;;;;;;6340922;22;20002;-89
2022/06/15 01:35:21;;;;;;;14.75;4.00;;;16.90;99.90;;;;;;6340547;22;20002;-88
2022/06/15 01:37:59;;;;;;;4.73;3.57;;;17.00;99.90;;;;;;6186191;23;20013;-88
2022/06/15 01:40:40;;;;;;;5.10;3.13;;;17.00;99.90;;;;;;6238797;22;20539;-88
2022/06/15 01:43:13;;;;;;;10.90;3.95;;;17.00;99.90;;;;;;6342781;22;20257;-88
2022/06/15 01:45:41;;;;;;;12.60;3.70;;;17.10;99.90;;;;;;6313029;22;20021;-89
2022/06/15 01:48:11;;;;;;;6.50;3.25;;;17.00;99.90;;;;;;6342734;22;20116;-88
2022/06/15 01:50:46;;;;;;;8.27;3.50;;;17.00;99.90;;;;;;6339768;22;20084;-88
2022/06/15 01:53:25;;;;;;;6.15;3.65;;;17.00;99.90;;;;;;6286086;22;20007;-88
2022/06/15 01:55:54;;;;;;;6.05;3.38;;;16.90;99.90;;;;;;6338793;22;20507;-90
2022/06/15 01:58:24;;;;;;;10.63;3.95;;;16.80;99.90;;;;;;6339305;22;19995;-88
2022/06/15 02:01:17;;;;;;;10.02;3.80;;;16.80;99.90;;;;;;6311262;22;20409;-91
2022/06/15 02:03:55;;;;;;;6.95;3.60;;;16.70;99.90;;;;;;6340552;22;20487;-88
2022/06/15 02:06:21;;;;;;;;;;;16.70;99.90;;;;;;6341161;22;19995;-88
2022/06/15 02:09:20;;;;;;;5.00;3.47;;;16.70;99.90;;;;;;6340695;22;19985;-88
2022/06/15 02:11:47;;;;;;;7.43;3.47;;;16.70;99.90;;;;;;6311790;22;19987;-88
2022/06/15 02:14:22;;;;;;;6.60;3.60;;;16.70;99.90;;;;;;6309051;22;20343;-87
2022/06/15 02:17:12;;;;;;;12.02;3.90;;;16.80;99.90;;;;;;6337786;22;20035;-88
2022/06/15 02:20:01;;;;;;;11.10;3.78;;;16.70;99.90;;;;;;6308570;22;20089;-88
2022/06/15 02:22:30;;;;;;;8.15;3.80;;;16.70;99.90;;;;;;6307482;22;20007;-89
2022/06/15 02:25:00;;;;;;;8.00;3.80;;;16.70;99.90;;;;;;6310727;22;20035;-88
2022/06/15 02:27:29;;;;;;;6.43;3.13;;;16.70;99.90;;;;;;6340022;22;20021;-88
2022/06/15 02:30:02;;;;;;;5.63;3.53;;;16.70;99.90;;;;;;6338146;22;19999;-88
2022/06/15 02:32:28;;;;;;;8.43;3.65;;;16.70;99.90;;;;;;6338604;22;19995;-88
2022/06/15 02:34:53;;;;;;;6.00;3.50;;;16.70;99.90;;;;;;6312136;22;20093;-88
2022/06/15 02:37:20;;;;;;;7.47;3.58;;;16.60;99.90;;;;;;6318472;22;20003;-88
2022/06/15 02:39:45;;;;;;;8.85;3.58;;;16.60;99.90;;;;;;6347633;22;20020;-88
2022/06/15 02:42:41;;;;;;;7.47;3.50;;;16.60;99.90;;;;;;6319621;22;20010;-88
2022/06/15 02:45:13;;;;;;;6.63;3.72;;;16.50;99.90;;;;;;6342333;22;20022;-88
2022/06/15 02:47:42;;;;;;;10.05;3.75;;;16.30;99.90;;;;;;6316302;22;20006;-88
2022/06/15 02:50:13;;;;;;;5.72;3.42;;;16.30;99.90;;;;;;6313922;22;20023;-88
2022/06/15 02:52:44;;;;;;;4.30;3.42;;;16.20;99.90;;;;;;6343901;22;20006;-88
2022/06/15 02:55:12;;;;;;;9.07;3.50;;;16.30;99.90;;;;;;6313600;22;20029;-88
2022/06/15 02:58:15;;;;;;;8.05;3.83;;;16.20;99.90;;;;;;6312638;22;20081;-88
2022/06/15 03:00:41;;;;;;;10.55;4.00;;;16.20;99.90;;;;;;6188013;23;20259;-88
2022/06/15 03:03:07;;;;;;;8.65;4.03;;;16.10;99.90;;;;;;6287518;22;20053;-89
2022/06/15 03:05:33;;;;;;;8.30;4.03;;;16.10;99.90;;;;;;6313488;22;20350;-88
2022/06/15 03:08:00;;;;;;;8.20;4.03;;;16.10;99.90;;;;;;6339804;22;20002;-89
2022/06/15 03:10:25;;;;;;;7.93;3.78;;;16.20;99.90;;;;;;6312640;22;19999;-92
2022/06/15 03:12:52;;;;;;;9.40;4.38;;;16.10;99.90;;;;;;6340028;22;20022;-89
2022/06/15 03:15:17;;;;;;;8.68;4.63;;;16.00;99.90;;;;;;6337453;22;20044;-88
2022/06/15 03:17:43;;;;;;;7.20;4.00;;;15.90;99.90;;;;;;6330375;22;20011;-88
2022/06/15 03:20:11;;;;;;;17.58;4.55;;;16.00;99.90;;;;;;6335649;22;20007;-88
2022/06/15 03:22:37;;;;;;;7.95;4.25;;;15.90;99.90;;;;;;6336236;22;20061;-88
2022/06/15 03:25:03;;;;;;;9.93;4.00;;;16.00;99.90;;;;;;6335685;22;20021;-88
2022/06/15 03:27:29;;;;;;;12.40;4.32;;;15.80;99.90;;;;;;6336050;22;20031;-88
2022/06/15 05:11:01;;;;;;;8.15;4.88;;;15.40;99.90;;;;;;6302739;22;20021;-88
2022/06/15 05:13:27;;;;;;;10.55;4.72;;;15.40;99.90;;;;;;6345784;22;20002;-89
2022/06/15 05:15:53;;;;;;;7.53;4.70;;;15.40;99.90;;;;;;6346484;22;20007;-91
2022/06/15 05:18:24;;;;;;;12.45;4.60;;;15.50;99.90;;;;;;6345133;22;20005;-91
2022/06/15 05:20:51;;;;;;;10.90;4.88;;;15.40;99.90;;;;;;6347273;22;20422;-88
2022/06/15 05:23:19;;;;;;;13.95;5.07;;;15.50;99.90;;;;;;6345479;22;20010;-88
2022/06/15 05:25:45;;;;;;;;;;;15.50;99.90;;;;;;6344708;22;20044;-90
2022/06/15 05:28:12;;;;;;;9.13;4.45;;;15.50;99.90;;;;;;6344589;22;20310;-89
2022/06/15 05:30:38;;;;;;;7.47;4.05;;;15.60;99.90;;;;;;6343939;22;19998;-92
2022/06/15 05:33:10;;;;;;;14.48;4.95;;;15.60;99.90;;;;;;6346175;22;20096;-91
2022/06/15 05:35:36;;;;;;;7.88;4.60;;;15.60;99.90;;;;;;6346052;22;20045;-89
2022/06/15 05:38:03;;;;;;;7.60;4.75;;;15.60;99.90;;;;;;6344588;22;20021;-89
2022/06/15 05:40:29;;;;;;;9.13;4.90;;;15.70;99.90;;;;;;6344523;22;20006;-89
2022/06/15 05:42:55;;;;;;;6.32;4.35;;;15.70;99.90;;;;;;6346895;22;20014;-89
2022/06/15 05:45:20;;;;;;;14.05;4.45;;;15.90;99.90;;;;;;6344640;22;20318;-89
2022/06/15 05:47:49;;;;;;;10.05;4.45;;;16.00;99.90;;;;;;6345284;22;20009;-89
2022/06/15 05:50:15;;;;;;;;;;;16.00;99.90;;;;;;6345732;22;20089;-90
2022/06/15 05:52:47;;;;;;;8.98;4.53;;;16.00;99.90;;;;;;6345129;22;19902;-90
2022/06/15 05:55:15;;;;;;;7.70;4.30;;;16.10;99.90;;;;;;6346081;22;20002;-90
2022/06/15 05:57:41;;;;;;;12.68;4.43;;;16.30;99.90;;;;;;6346205;22;19998;-89
2022/06/15 06:00:09;;;;;;;7.07;4.18;;;16.30;99.90;;;;;;6343705;22;20006;-88
2022/06/15 06:02:35;;;;;;;11.00;4.50;;;16.20;99.90;;;;;;6343718;22;20010;-89
2022/06/15 06:05:01;;;;;;;8.93;4.50;;;16.40;99.90;;;;;;6343895;22;20002;-91
2022/06/15 06:07:38;;;;;;;11.45;4.78;;;16.50;99.90;;;;;;6345726;22;20030;-90
2022/06/15 06:10:06;;;;;;;8.35;4.15;;;16.60;99.90;;;;;;6344614;22;20434;-90
2022/06/15 06:12:33;;;;;;;;;;;16.70;99.90;;;;;;6344584;22;20006;-90
2022/06/15 06:15:01;;;;;;;8.63;4.20;;;16.80;99.90;;;;;;6346228;22;19898;-91
2022/06/15 06:17:27;;;;;;;;;;;16.90;99.90;;;;;;6346874;22;20002;-88
2022/06/15 06:19:53;;;;;;;8.32;4.10;;;16.90;99.90;;;;;;6350843;22;19974;-90
2022/06/15 06:22:18;;;;;;;6.63;4.13;;;17.00;99.90;;;;;;6347462;22;20014;-90
2022/06/15 06:24:44;;;;;;;6.78;3.80;;;17.10;99.90;;;;;;6344896;22;20394;-89
2022/06/15 06:27:15;;;;;;;7.63;3.90;;;17.20;99.90;;;;;;6344507;22;20013;-90
2022/06/15 06:29:41;;;;;;;10.48;4.22;;;17.30;99.90;;;;;;6345223;22;20488;-89
2022/06/15 06:32:12;;;;;;;11.43;4.25;;;17.60;99.90;;;;;;6346118;22;20469;-89
2022/06/15 06:34:38;;;;;;;12.88;4.55;;;17.40;99.90;;;;;;6346358;22;20009;-89
2022/06/15 06:37:11;;;;;;;12.75;4.65;;;17.50;99.90;;;;;;6344421;22;20010;-90
2022/06/15 06:39:37;;;;;;;9.52;3.95;;;17.50;99.90;;;;;;6346265;22;20293;-89
2022/06/15 06:42:05;;;;;;;11.68;4.38;;;17.60;99.90;;;;;;6346178;22;20024;-89
2022/06/15 06:44:33;;;;;;;9.30;3.75;;;17.70;99.90;;;;;;6345640;22;20346;-89
2022/06/15 06:47:01;;;;;;;10.88;4.00;;;17.80;99.90;;;;;;6346282;22;19998;-90
2022/06/15 06:49:29;;;;;;;7.00;3.67;;;17.80;99.90;;;;;;6345112;22;20005;-92
2022/06/15 06:51:55;;;;;;;;;;;17.90;99.90;;;;;;6344608;22;20445;-89
2022/06/15 06:54:22;;;;;;;11.23;3.80;;;18.10;99.90;;;;;;6344499;22;19921;-91
2022/06/15 06:56:54;;;;;;;10.07;3.78;;;18.10;99.90;;;;;;6347165;22;19999;-90
2022/06/15 06:59:22;;;;;;;11.90;3.80;;;18.30;99.90;;;;;;6346393;22;20089;-89
2022/06/15 07:01:48;;;;;;;;;;;18.50;99.90;;;;;;6346708;22;20345;-90
2022/06/15 07:04:15;;;;;;;7.70;4.20;;;18.60;99.90;;;;;;6346821;22;19902;-89
2022/06/15 07:06:41;;;;;;;5.67;3.60;;;18.60;99.90;;;;;;6345530;22;19998;-90
2022/06/15 07:09:07;;;;;;;7.93;3.80;;;18.80;99.90;;;;;;6344293;22;20232;-89
2022/06/15 07:11:36;;;;;;;12.48;3.78;;;18.80;99.90;;;;;;6345173;22;20017;-89
2022/06/15 07:14:04;;;;;;;7.55;3.60;;;18.90;99.90;;;;;;6344575;22;20006;-90
2022/06/15 07:16:31;;;;;;;9.02;3.53;;;19.10;99.90;;;;;;6345048;22;20006;-90
2022/06/15 07:18:56;;;;;;;10.43;3.47;;;19.00;99.90;;;;;;6345486;22;20002;-89
2022/06/15 07:21:27;;;;;;;6.95;3.20;;;19.30;99.90;;;;;;6343703;22;20010;-89
2022/06/15 07:23:57;;;;;;;9.43;3.75;;;19.50;99.90;;;;;;6343983;22;20434;-90
2022/06/15 07:26:45;;;;;;;6.82;3.42;;;19.50;99.90;;;;;;6344252;22;20333;-90
2022/06/15 07:29:13;;;;;;;10.38;4.00;;;19.50;99.90;;;;;;6344474;22;20075;-90
2022/06/15 07:31:42;;;;;;;7.63;3.67;;;19.70;99.90;;;;;;6345473;22;20025;-89
2022/06/15 07:34:08;;;;;;;10.45;3.42;;;19.90;99.90;;;;;;6345184;22;20002;-90
2022/06/15 07:36:40;;;;;;;12.35;3.55;;;19.90;99.90;;;;;;6344678;22;20094;-90
2022/06/15 07:39:09;;;;;;;8.95;3.30;;;20.10;99.90;;;;;;6344564;22;20446;-90
2022/06/15 07:41:37;;;;;;;8.77;3.30;;;20.20;99.90;;;;;;6344174;22;20013;-91
2022/06/15 07:44:06;;;;;;;8.30;3.30;;;20.40;99.90;;;;;;6343920;22;20002;-90
2022/06/15 07:46:37;;;;;;;6.47;3.63;;;20.40;99.90;;;;;;6343110;22;20334;-91
2022/06/15 07:52:04;;;;;;;10.13;3.30;;;20.50;99.90;;;;;;6372692;22;20009;-89
2022/06/15 07:54:33;;;;;;;7.65;3.20;;;20.70;99.90;;;;;;6344171;22;20499;-89
2022/06/15 07:56:59;;;;;;;7.30;3.30;;;20.70;99.90;;;;;;6344726;22;20081;-90
2022/06/15 07:59:26;;;;;;;9.77;3.67;;;20.90;99.90;;;;;;6344056;22;20034;-90
2022/06/15 08:02:04;;;;;;;6.22;3.33;;;21.00;99.90;;;;;;6344785;22;20010;-89
2022/06/15 08:04:39;;;;;;;7.25;3.28;;;21.10;99.90;;;;;;6372164;22;20030;-90
2022/06/15 08:07:09;;;;;;;5.50;3.40;;;21.20;99.90;;;;;;6343787;22;20005;-91
2022/06/15 08:09:43;;;;;;;7.50;3.40;;;21.40;99.90;;;;;;6344342;22;20006;-90
2022/06/15 08:12:11;;;;;;;9.45;3.63;;;21.50;99.90;;;;;;6319229;22;20097;-90
2022/06/15 08:14:40;;;;;;;8.65;3.38;;;21.70;99.90;;;;;;6344885;22;20010;-90
2022/06/15 08:17:11;;;;;;;9.05;3.78;;;21.70;99.90;;;;;;6317731;22;20031;-89
2022/06/15 08:19:43;;;;;;;11.15;3.45;;;21.90;99.90;;;;;;6343285;22;20441;-90
2022/06/15 08:22:18;;;;;;;6.15;3.28;;;21.90;99.90;;;;;;6343298;22;20014;-90
2022/06/15 08:24:48;;;;;;;6.20;3.30;;;22.00;99.90;;;;;;6344217;22;20016;-89
2022/06/15 08:27:17;;;;;;;7.07;3.00;;;22.20;99.90;;;;;;6344369;22;20006;-90
2022/06/15 08:29:52;;;;;;;6.80;3.15;;;22.40;99.90;;;;;;6344600;22;20051;-91
2022/06/15 08:32:18;;;;;;;10.32;3.30;;;22.50;99.90;;;;;;6342685;22;20085;-92
2022/06/15 08:34:49;;;;;;;7.95;3.17;;;22.60;99.90;;;;;;6344215;22;20010;-91
2022/06/15 08:37:17;;;;;;;8.32;3.50;;;22.40;99.90;;;;;;6344292;22;20422;-90
2022/06/15 08:39:42;;;;;;;;;;;23.20;99.90;;;;;;6344716;22;20081;-90
2022/06/15 08:42:27;;;;;;;10.25;3.10;;;22.80;99.90;;;;;;6344705;22;19913;-90
2022/06/15 08:44:55;;;;;;;8.23;3.53;;;22.90;99.90;;;;;;6346177;22;20056;-91
2022/06/15 08:47:38;;;;;;;7.00;2.75;;;23.10;99.90;;;;;;6344443;22;20426;-91
2022/06/15 08:50:24;;;;;;;9.48;2.83;;;23.20;99.90;;;;;;6343714;22;20006;-90
2022/06/15 08:53:28;;;;;;;6.13;3.10;;;23.30;99.90;;;;;;6344367;22;20006;-91
2022/06/15 08:56:15;;;;;;;9.18;3.00;;;23.40;99.90;;;;;;6327162;22;20474;-90
2022/06/15 08:58:55;;;;;;;10.48;3.00;;;23.50;99.90;;;;;;6345812;22;20002;-91
2022/06/15 09:01:38;;;;;;;7.43;3.17;;;23.50;99.90;;;;;;6344815;22;20010;-90
2022/06/15 09:04:38;;;;;;;7.93;2.92;;;23.70;99.90;;;;;;6343675;22;20021;-91
2022/06/15 09:07:37;;;;;;;6.65;3.10;;;23.90;99.90;;;;;;6344667;22;20085;-90
2022/06/15 09:11:01;;;;;;;6.80;3.22;;;24.00;99.90;;;;;;6343535;22;20089;-92
2022/06/15 09:13:49;;;;;;;8.55;2.80;;;23.90;99.90;;;;;;6342748;22;20014;-92
2022/06/15 09:16:52;;;;;;;;;;;;;;;;;;;;;
2022/06/15 09:19:42;;;;;;;6.20;3.17;;;24.20;99.70;;;;;;6373670;22;20057;-91
2022/06/15 09:25:41;;;;;;;6.32;3.03;;;24.40;99.90;;;;;;6354997;22;19999;-93
2022/06/15 09:31:51;;;;;;;;;;;;;;;;;;;;;
2022/06/15 09:34:43;;;;;;;;;;;;;;;;;;;;;
2022/06/15 09:37:46;;;;;;;;;;;;;;;;;;;;;
2022/06/15 09:40:34;;;;;;;14.35;3.00;;;24.70;98.10;;;;;;6378997;22;20033;-90
2022/06/15 09:43:55;;;;;;;;;;;;;;;;;;;;;
2022/06/15 09:47:11;;;;;;;13.70;3.00;;;24.70;93.70;;;;;;6344842;22;19918;-91
2022/06/15 09:50:05;;;;;;;6.22;3.00;;;24.70;96.30;;;;;;6318085;22;19998;-93
2022/06/15 09:52:57;;;;;;;6.43;2.80;;;24.90;94.80;;;;;;6309773;22;20010;-92
2022/06/15 09:56:15;;;;;;;7.32;3.25;;;25.00;98.70;;;;;;6308934;22;20003;-92
2022/06/15 09:59:00;;;;;;;6.85;2.92;;;25.20;93.90;;;;;;6290789;22;20049;-91
2022/06/15 10:01:33;;;;;;;7.65;4.18;;;25.20;92.60;;;;;;6310055;22;20082;-92
2022/06/15 10:04:19;;;;;;;;;;;;;;;;;;;;;
2022/06/15 10:10:17;;;;;;;9.15;2.90;;;25.50;92.40;;;;;;6311254;22;20007;-91
2022/06/15 10:12:56;;;;;;;7.25;2.95;;;25.50;93.10;;;;;;6308481;22;20097;-91
2022/06/15 10:15:32;;;;;;;9.05;2.50;;;25.50;80.70;;;;;;6340564;22;20022;-92
2022/06/15 10:18:17;;;;;;;6.45;2.85;;;25.50;82.60;;;;;;6345079;22;20013;-91
2022/06/15 10:21:04;;;;;;;11.55;2.80;;;25.50;85.80;;;;;;6340866;22;19995;-92
2022/06/15 10:23:53;;;;;;;6.57;2.40;;;25.70;75.70;;;;;;6345049;22;20036;-91
2022/06/15 10:27:03;;;;;;;7.03;2.97;;;25.80;69.30;;;;;;6348333;22;20259;-91
2022/06/15 10:29:32;;;;;;;11.20;3.03;;;25.80;78.60;;;;;;6345194;22;20009;-92
2022/06/15 10:32:03;;;;;;;10.77;3.72;;;26.00;67.20;;;;;;6342631;22;20033;-91
2022/06/15 10:34:55;;;;;;;8.68;2.97;;;26.00;66.30;;;;;;6344601;22;20026;-92
2022/06/15 10:37:27;;;;;;;11.20;4.85;;;25.90;62.50;;;;;;6345234;22;20017;-90
2022/06/15 10:40:00;;;;;;;8.93;2.75;;;26.00;73.90;;;;;;6344097;22;20003;-91
2022/06/15 10:42:47;;;;;;;29.50;18.83;;;26.10;71.70;;;;;;6340873;22;20454;-93
2022/06/15 10:45:42;;;;;;;5.95;3.15;;;26.10;61.40;;;;;;6344354;22;20031;-90
2022/06/15 10:48:31;;;;;;;6.25;2.97;;;26.10;60.30;;;;;;6342600;22;20086;-91
2022/06/15 10:51:36;;;;;;;8.35;3.42;;;25.90;67.30;;;;;;6339892;22;19998;-95
2022/06/15 10:54:19;;;;;;;6.63;2.80;;;26.10;65.90;;;;;;6263180;22;20025;-92
2022/06/15 11:02:48;;;;;;;9.50;2.90;;;26.40;65.10;;;;;;6366348;22;20078;-92
2022/06/15 11:05:29;;;;;;;11.00;2.55;;;26.30;62.40;;;;;;6340017;22;20016;-92
2022/06/15 11:08:05;;;;;;;6.55;2.70;;;26.20;64.30;;;;;;6340020;22;20408;-92
2022/06/15 11:10:35;;;;;;;8.00;2.70;;;26.40;63.70;;;;;;6334554;22;20089;-91
2022/06/15 11:13:15;;;;;;;7.18;2.90;;;26.50;62.30;;;;;;6338933;22;20018;-90
2022/06/15 11:18:36;;;;;;;10.82;2.90;;;26.40;59.70;;;;;;6367082;22;20112;-92
2022/06/15 11:21:28;;;;;;;6.65;2.80;;;26.50;59.00;;;;;;6339274;22;20002;-92
2022/06/15 11:24:30;;;;;;;5.22;2.80;;;26.60;59.50;;;;;;6365939;22;20333;-93
2022/06/15 11:27:07;;;;;;;9.82;2.88;;;26.60;62.00;;;;;;6320693;22;20029;-93
2022/06/15 11:29:54;;;;;;;9.07;2.85;;;26.70;60.30;;;;;;6341468;22;20021;-93
2022/06/15 11:32:39;;;;;;;6.30;2.70;;;26.80;61.90;;;;;;6338955;22;20002;-92
2022/06/15 11:35:54;;;;;;;;;;;;;;;;;;;;;
2022/06/15 11:38:58;;;;;;;;;;;;;;;;;;;;;
2022/06/15 11:41:50;;;;;;;;;;;;;;;;;;;;;
2022/06/15 11:45:02;;;;;;;6.72;3.08;;;26.80;60.70;;;;;;6384563;22;20017;-91
2022/06/15 11:48:22;;;;;;;;;;;;;;;;;;;;;
2022/06/15 11:50:53;;;;;;;7.38;3.05;;;26.90;63.50;;;;;;6370336;22;20085;-91
2022/06/15 11:53:42;;;;;;;7.10;2.83;;;26.90;57.90;;;;;;6337961;22;19999;-90
2022/06/15 11:56:17;;;;;;;5.57;2.50;;;26.80;60.70;;;;;;6338404;22;20007;-91
2022/06/15 11:59:14;;;;;;;9.00;2.65;;;26.80;61.20;;;;;;6338308;22;20002;-91
2022/06/15 12:02:10;;;;;;;6.80;2.90;;;27.00;61.30;;;;;;6338204;22;20089;-91
2022/06/15 12:08:06;;;;;;;7.90;2.80;;;27.10;63.00;;;;;;6352966;22;20002;-92
2022/06/15 12:10:50;;;;;;;8.52;3.10;;;27.10;62.00;;;;;;6325642;22;20006;-91
2022/06/15 12:16:39;;;;;;;7.68;3.05;;;27.20;61.40;;;;;;6349010;22;20026;-92
2022/06/15 12:19:48;;;;;;;;;;;;;;;;;;;;;
2022/06/15 12:22:56;;;;;;;4.95;2.75;;;27.30;59.00;;;;;;6217498;23;20091;-91
2022/06/15 12:25:55;;;;;;;12.13;3.20;;;27.30;60.00;;;;;;6346326;22;20007;-92
2022/06/15 12:28:48;;;;;;;10.00;2.70;;;27.50;57.20;;;;;;6345707;22;20002;-93
2022/06/15 12:31:40;;;;;;;9.50;2.78;;;27.50;57.50;;;;;;6344795;22;20003;-94
2022/06/15 12:35:10;;;;;;;9.38;2.83;;;27.40;55.20;;;;;;6340743;22;20064;-91
2022/06/15 12:37:55;;;;;;;8.80;3.00;;;27.50;58.10;;;;;;6363663;22;20005;-93
2022/06/15 12:40:42;;;;;;;9.38;2.95;;;27.60;54.20;;;;;;6348542;22;20094;-93
2022/06/15 12:43:28;;;;;;;5.05;2.50;;;27.60;55.90;;;;;;6342937;22;20442;-92
2022/06/15 12:46:09;;;;;;;6.10;2.80;;;27.60;51.50;;;;;;6342338;22;20006;-92
2022/06/15 12:48:50;;;;;;;6.15;2.60;;;27.50;50.80;;;;;;6350277;22;20006;-91
2022/06/15 12:51:37;;;;;;;6.10;3.00;;;27.40;53.60;;;;;;6343015;22;20437;-93
2022/06/15 13:02:20;;;;;;;4.90;2.50;;;27.90;51.20;;;;;;6240410;22;20012;-92
2022/06/15 13:05:32;;;;;;;;;;;;;;;;;;;;;
2022/06/15 14:26:17;;;;;;;10.03;3.30;;;28.60;53.70;;;;;;6195075;22;3980199;-92
2022/06/15 14:33:02;;;;;;;;;;;;;;;;;;;;;
2022/06/15 14:36:23;;;;;;;15.18;2.83;;;29.10;60.80;;;;;;6308220;22;20070;-94
2022/06/15 14:50:26;;;;;;;9.05;2.90;;;28.30;52.40;;;;;;6152562;23;20467;-90
2022/06/15 17:48:05;;;;;;;7.07;2.67;;;25.10;60.10;;;;;;6160472;23;20009;-89
2022/06/15 19:15:48;;;;;;;7.50;3.00;;;22.50;75.40;;;;;;6341511;22;20015;-91
2022/06/15 19:18:19;;;;;;;9.95;3.72;;;22.40;77.20;;;;;;6316857;22;20010;-90
2022/06/15 19:20:46;;;;;;;8.77;3.95;;;22.30;78.40;;;;;;6318137;22;20003;-91
2022/06/15 19:23:13;;;;;;;8.43;3.70;;;22.20;79.40;;;;;;6309481;22;20090;-90
2022/06/15 19:25:45;;;;;;;6.68;3.60;;;22.20;78.20;;;;;;6309490;22;20002;-92
2022/06/15 19:28:31;;;;;;;11.25;4.40;;;22.00;81.40;;;;;;6310240;22;20007;-92
2022/06/15 19:34:58;;;;;;;12.75;3.60;;;21.80;87.60;;;;;;6151557;23;20002;-91
2022/06/15 19:37:24;;;;;;;8.25;3.67;;;21.90;87.00;;;;;;6194014;23;20005;-95
